Kars Airport

LTCF · Kars, 土耳其

罗盘
风向 的 风向 060° Kars Airport 6L/24R
风: 8 kt, 3 beaufort

8 kt

1 kt
改变
0 ft 1.000 2.000 3.000 4.000 5.000
Cloud Cloud
FEW 3.500
METAR LTCF 231650Z 06008KT 9999 FEW035 M03/M05 Q1022 NOSIG

METAR Kars Airport - LTCF/KSY

Kars Airport是,土耳其中的中型机场。 该机场位于纬度40,56220和经度43,11500。 该机场有2条跑道: 6L/24R 和 6R/24L. 本场的ICAO机场代码为LTCF。 该机场的IATA代码为KSY。 机场在Ankara FIR中。

该航空气象观测是针对Kars Airport在2024年2月23日 19:50, 当地时间进行的。

机场观察

风向为060°,速度为8 kt。

可见度为10 km 或者更多。

有几云在3.500 ft的高度。 没有观察到天花板。

温度为-3 °C,阵风为-10 °C。 露点为-5 °C,相对湿度为86%。 海平面上的气压为1022 hPa (QNH)。

白天

今天,太阳从06:50升起,在17:50降落。 这适用于Kars Airport,世界夏令时可能有所不同。 当地时间与世界标准时间之间的时差为+3 小时。 当前,没有夏令时有效。

公司介绍

我们没有关于这个机场的公司信息。

体会

到Vliegles.nl去找飞行课程,跳伞和其他飞行体验。 浏览页面,了解Kars Airport附近所有可用的活动。 你也可以使用搜索功能来寻找你所在地附近的特定飞行课程、跳伞或其他飞行体验。

跑道

Id 标题 侧风 逆风 侧风 %
6L/24R 064°-244° 8 kt 7 %
6R/24L 064°-244° 8 kt 7 %

逆风成分最大的方向会被突出显示,并用于横风计算。 这并不一定意味着这个方向在使用。

乌云

3.500 ft FEW 几云

温度 & 天气

温度 -3 °C
露点 -5 °C
相对湿度 86%
风寒 -10 °C
Kp-index 0 (0-9)

白天

日出
06:50 (9:51)
中午
12:20
日落
17:50

小工具

你想在你的网站上有一个关于Kars Airport的当前航空天气(METAR)的小部件吗?

显示HTML代码
?>